DLH8P EDDM-KBOS
Flight info
| Callsign | DLH8P |
|---|---|
| Flight time | N/A |
| Altitude | 36000 |
| Route | OLASO2E OLASO Z714 PELOG UM164 LUPEN/N0480F350 DCT POGOL DCT LUVAL DCT ROTSI/N0483F360 DCT AMODO DCT COHPA UM729 RESMI UN491 LGL UN502 JSY DCT LIZAD DCT LESLU DCT LIMRI/M085F380 NATE TUDEP/N0494F380 DCT EBONY DCT AJJAY OOSHN5 |
| Aircraft | A388/J-SADE2E3FGHIJ3J4J5M1RWXY/LB1D1 |
Departure
| Time | N/A |
|---|---|
| Airport | Munich Airport (EDDM) |
Arrival
| Time | 2026-05-04 20:56 |
|---|---|
| Airport | Boston Logan International Airport (KBOS) |
| Time | Latitude | Longitude | Altitude | Speed | Heading |
|---|---|---|---|---|---|
| 2026-05-04 19:55 | 46.38001 | -64.45387 | 37640 ft | 467 kts | 234° |
| 2026-05-04 19:56 | 46.36041 | -64.49148 | 37636 ft | 466 kts | 234° |
| 2026-05-04 19:56 | 46.32120 | -64.56655 | 37634 ft | 466 kts | 234° |
| 2026-05-04 19:57 | 46.28200 | -64.64142 | 37634 ft | 467 kts | 234° |
| 2026-05-04 19:57 | 46.24274 | -64.71620 | 37648 ft | 467 kts | 234° |
| 2026-05-04 19:58 | 46.20341 | -64.79090 | 37665 ft | 466 kts | 234° |
| 2026-05-04 19:58 | 46.16439 | -64.86480 | 37666 ft | 466 kts | 234° |
| 2026-05-04 19:59 | 46.12503 | -64.93918 | 37665 ft | 466 kts | 234° |
| 2026-05-04 19:59 | 46.08562 | -65.01344 | 37670 ft | 466 kts | 234° |
| 2026-05-04 20:00 | 46.04622 | -65.08750 | 37672 ft | 465 kts | 234° |
| 2026-05-04 20:00 | 46.00676 | -65.16146 | 37678 ft | 465 kts | 234° |
| 2026-05-04 20:01 | 45.96743 | -65.23498 | 37685 ft | 465 kts | 234° |
| 2026-05-04 20:01 | 45.92792 | -65.30865 | 37682 ft | 465 kts | 234° |
| 2026-05-04 20:02 | 45.88860 | -65.38179 | 37708 ft | 464 kts | 234° |
| 2026-05-04 20:02 | 45.84904 | -65.45518 | 37709 ft | 464 kts | 234° |
| 2026-05-04 20:03 | 45.80970 | -65.52795 | 37705 ft | 463 kts | 234° |
| 2026-05-04 20:03 | 45.77010 | -65.60102 | 37715 ft | 463 kts | 234° |
| 2026-05-04 20:04 | 45.73051 | -65.67390 | 37724 ft | 462 kts | 234° |
| 2026-05-04 20:04 | 45.69121 | -65.74604 | 37721 ft | 462 kts | 234° |
| 2026-05-04 20:05 | 45.65161 | -65.81857 | 37727 ft | 461 kts | 234° |
| 2026-05-04 20:05 | 45.61214 | -65.89064 | 37725 ft | 462 kts | 234° |
| 2026-05-04 20:06 | 45.57246 | -65.96294 | 37743 ft | 462 kts | 234° |
| 2026-05-04 20:06 | 45.53275 | -66.03510 | 37745 ft | 461 kts | 234° |
| 2026-05-04 20:07 | 45.49327 | -66.10664 | 37743 ft | 461 kts | 234° |
| 2026-05-04 20:07 | 45.45356 | -66.17844 | 37743 ft | 460 kts | 234° |
| 2026-05-04 20:08 | 45.41384 | -66.25005 | 37751 ft | 459 kts | 234° |
| 2026-05-04 20:08 | 45.37425 | -66.32128 | 37746 ft | 458 kts | 234° |
| 2026-05-04 20:09 | 45.33490 | -66.39188 | 37746 ft | 458 kts | 234° |
| 2026-05-04 20:09 | 45.29532 | -66.46273 | 37775 ft | 457 kts | 234° |
| 2026-05-04 20:10 | 45.25570 | -66.53345 | 37767 ft | 456 kts | 234° |
| 2026-05-04 20:10 | 45.21629 | -66.60366 | 37766 ft | 456 kts | 234° |
| 2026-05-04 20:11 | 45.17666 | -66.67415 | 37754 ft | 456 kts | 234° |
| 2026-05-04 20:11 | 45.13704 | -66.74448 | 37759 ft | 455 kts | 234° |
| 2026-05-04 20:12 | 45.09770 | -66.81416 | 37760 ft | 455 kts | 234° |
| 2026-05-04 20:12 | 45.05806 | -66.88417 | 37762 ft | 454 kts | 234° |
| 2026-05-04 20:13 | 45.01867 | -66.95359 | 37767 ft | 455 kts | 234° |
| 2026-05-04 20:13 | 44.97892 | -67.02346 | 37781 ft | 454 kts | 234° |
| 2026-05-04 20:14 | 44.93922 | -67.09306 | 37784 ft | 454 kts | 234° |
| 2026-05-04 20:14 | 44.89984 | -67.16209 | 37769 ft | 453 kts | 235° |
| 2026-05-04 20:15 | 44.86448 | -67.23520 | 37757 ft | 450 kts | 240° |
| 2026-05-04 20:15 | 44.83131 | -67.30961 | 37777 ft | 449 kts | 239° |
| 2026-05-04 20:16 | 44.79739 | -67.38377 | 37770 ft | 449 kts | 239° |
| 2026-05-04 20:16 | 44.76330 | -67.45727 | 37781 ft | 449 kts | 239° |
| 2026-05-04 20:17 | 44.72892 | -67.53107 | 37774 ft | 450 kts | 239° |
| 2026-05-04 20:17 | 44.69454 | -67.60472 | 37765 ft | 450 kts | 239° |
| 2026-05-04 20:18 | 44.66011 | -67.67828 | 37768 ft | 450 kts | 239° |
| 2026-05-04 20:18 | 44.62588 | -67.75124 | 37768 ft | 450 kts | 239° |
| 2026-05-04 20:19 | 44.59138 | -67.82458 | 37778 ft | 450 kts | 239° |
| 2026-05-04 20:19 | 44.55675 | -67.89800 | 37774 ft | 450 kts | 239° |
| 2026-05-04 20:20 | 44.52223 | -67.97103 | 37781 ft | 450 kts | 238° |
| 2026-05-04 20:20 | 44.48753 | -68.04423 | 37786 ft | 451 kts | 238° |
| 2026-05-04 20:21 | 44.45864 | -68.10504 | 37781 ft | 451 kts | 238° |
| 2026-05-04 20:21 | 44.40067 | -68.22667 | 37770 ft | 452 kts | 238° |
| 2026-05-04 20:22 | 44.37137 | -68.28796 | 37773 ft | 452 kts | 238° |
| 2026-05-04 20:22 | 44.33646 | -68.36081 | 37779 ft | 453 kts | 238° |
| 2026-05-04 20:23 | 44.30131 | -68.43397 | 37783 ft | 453 kts | 238° |
| 2026-05-04 20:23 | 44.26628 | -68.50670 | 37799 ft | 453 kts | 238° |
| 2026-05-04 20:24 | 44.23101 | -68.57975 | 37800 ft | 453 kts | 238° |
| 2026-05-04 20:24 | 44.19563 | -68.65284 | 37798 ft | 454 kts | 238° |
| 2026-05-04 20:25 | 44.16048 | -68.72527 | 37797 ft | 454 kts | 238° |
| 2026-05-04 20:25 | 44.12494 | -68.79832 | 37787 ft | 454 kts | 238° |
| 2026-05-04 20:26 | 44.08957 | -68.87084 | 37789 ft | 454 kts | 238° |
| 2026-05-04 20:26 | 44.05393 | -68.94373 | 37790 ft | 455 kts | 238° |
| 2026-05-04 20:27 | 44.01463 | -69.02390 | 37791 ft | 455 kts | 238° |
| 2026-05-04 20:27 | 43.97885 | -69.09669 | 37791 ft | 455 kts | 238° |
| 2026-05-04 20:28 | 43.94324 | -69.16896 | 37789 ft | 455 kts | 238° |
| 2026-05-04 20:28 | 43.90737 | -69.24158 | 37794 ft | 455 kts | 238° |
| 2026-05-04 20:29 | 43.87149 | -69.31405 | 37800 ft | 456 kts | 238° |
| 2026-05-04 20:29 | 43.83580 | -69.38594 | 37806 ft | 455 kts | 238° |
| 2026-05-04 20:30 | 43.79990 | -69.45808 | 37489 ft | 453 kts | 238° |
| 2026-05-04 20:30 | 43.78195 | -69.49408 | 36686 ft | 455 kts | 238° |
| 2026-05-04 20:30 | 43.76386 | -69.53036 | 35688 ft | 461 kts | 239° |
| 2026-05-04 20:31 | 43.74385 | -69.56552 | 34610 ft | 472 kts | 230° |
| 2026-05-04 20:31 | 43.71875 | -69.59535 | 33721 ft | 481 kts | 219° |
| 2026-05-04 20:31 | 43.68980 | -69.61817 | 33043 ft | 484 kts | 209° |
| 2026-05-04 20:31 | 43.65824 | -69.63357 | 32657 ft | 479 kts | 203° |
| 2026-05-04 20:32 | 43.62683 | -69.64748 | 32383 ft | 468 kts | 204° |
| 2026-05-04 20:32 | 43.59608 | -69.66145 | 31955 ft | 464 kts | 204° |
| 2026-05-04 20:32 | 43.56538 | -69.67547 | 31323 ft | 463 kts | 205° |
| 2026-05-04 20:32 | 43.53482 | -69.68936 | 30741 ft | 459 kts | 205° |
| 2026-05-04 20:33 | 43.50456 | -69.70303 | 30195 ft | 455 kts | 205° |
| 2026-05-04 20:33 | 43.47449 | -69.71657 | 29545 ft | 453 kts | 205° |
| 2026-05-04 20:33 | 43.44461 | -69.73001 | 29002 ft | 448 kts | 205° |
| 2026-05-04 20:33 | 43.41532 | -69.74315 | 28432 ft | 445 kts | 205° |
| 2026-05-04 20:34 | 43.38586 | -69.75635 | 27870 ft | 442 kts | 205° |
| 2026-05-04 20:34 | 43.35659 | -69.76946 | 27283 ft | 438 kts | 205° |
| 2026-05-04 20:34 | 43.32763 | -69.78242 | 26734 ft | 435 kts | 205° |
| 2026-05-04 20:34 | 43.29893 | -69.79524 | 26174 ft | 431 kts | 204° |
| 2026-05-04 20:35 | 43.27086 | -69.80777 | 25622 ft | 427 kts | 204° |
| 2026-05-04 20:35 | 43.24266 | -69.82034 | 25052 ft | 424 kts | 204° |
| 2026-05-04 20:35 | 43.21458 | -69.83286 | 24491 ft | 421 kts | 204° |
| 2026-05-04 20:35 | 43.18683 | -69.84522 | 23939 ft | 418 kts | 204° |
| 2026-05-04 20:36 | 43.15926 | -69.85748 | 23389 ft | 414 kts | 204° |
| 2026-05-04 20:36 | 43.13199 | -69.86960 | 22789 ft | 410 kts | 204° |
| 2026-05-04 20:36 | 43.10499 | -69.88157 | 22260 ft | 405 kts | 204° |
| 2026-05-04 20:36 | 43.07830 | -69.89340 | 21713 ft | 401 kts | 204° |
| 2026-05-04 20:37 | 43.05188 | -69.90511 | 21179 ft | 396 kts | 204° |
| 2026-05-04 20:37 | 43.02610 | -69.91652 | 20645 ft | 393 kts | 204° |
| 2026-05-04 20:37 | 43.00018 | -69.92799 | 20113 ft | 389 kts | 204° |
| 2026-05-04 20:37 | 42.97451 | -69.93936 | 19576 ft | 385 kts | 204° |
| 2026-05-04 20:38 | 42.94905 | -69.95061 | 19040 ft | 382 kts | 204° |
| 2026-05-04 20:38 | 42.93238 | -69.95798 | 18686 ft | 380 kts | 204° |
| 2026-05-04 20:38 | 42.90723 | -69.96908 | 18158 ft | 377 kts | 204° |
| 2026-05-04 20:38 | 42.87436 | -69.98357 | 17438 ft | 371 kts | 204° |
| 2026-05-04 20:39 | 42.85785 | -69.99083 | 17094 ft | 368 kts | 204° |
| 2026-05-04 20:39 | 42.83362 | -70.00149 | 16710 ft | 363 kts | 203° |
| 2026-05-04 20:39 | 42.80956 | -70.01209 | 16244 ft | 362 kts | 203° |
| 2026-05-04 20:39 | 42.78596 | -70.02247 | 15746 ft | 358 kts | 203° |
| 2026-05-04 20:40 | 42.76236 | -70.03283 | 15261 ft | 354 kts | 203° |
| 2026-05-04 20:40 | 42.73912 | -70.04343 | 14769 ft | 349 kts | 205° |
| 2026-05-04 20:40 | 42.71638 | -70.05475 | 14267 ft | 345 kts | 205° |
| 2026-05-04 20:40 | 42.69392 | -70.06614 | 13780 ft | 342 kts | 205° |
| 2026-05-04 20:41 | 42.67209 | -70.07747 | 13277 ft | 336 kts | 210° |
| 2026-05-04 20:41 | 42.65320 | -70.09485 | 12823 ft | 322 kts | 229° |
| 2026-05-04 20:41 | 42.64004 | -70.11857 | 12393 ft | 309 kts | 246° |
| 2026-05-04 20:41 | 42.63137 | -70.14463 | 12204 ft | 296 kts | 249° |
| 2026-05-04 20:42 | 42.62290 | -70.16952 | 12093 ft | 284 kts | 248° |
| 2026-05-04 20:42 | 42.61462 | -70.19334 | 11944 ft | 275 kts | 249° |
| 2026-05-04 20:42 | 42.60673 | -70.21685 | 11670 ft | 270 kts | 252° |
| 2026-05-04 20:42 | 42.60168 | -70.24082 | 11421 ft | 266 kts | 262° |
| 2026-05-04 20:43 | 42.59975 | -70.26570 | 11181 ft | 263 kts | 269° |
| 2026-05-04 20:43 | 42.59889 | -70.29045 | 10920 ft | 262 kts | 268° |
| 2026-05-04 20:43 | 42.59780 | -70.31505 | 10672 ft | 260 kts | 268° |
| 2026-05-04 20:43 | 42.59664 | -70.33953 | 10408 ft | 259 kts | 268° |
| 2026-05-04 20:44 | 42.59547 | -70.36389 | 10169 ft | 258 kts | 268° |
| 2026-05-04 20:44 | 42.59432 | -70.38815 | 9935 ft | 257 kts | 268° |
| 2026-05-04 20:44 | 42.59319 | -70.41226 | 9806 ft | 255 kts | 268° |
| 2026-05-04 20:44 | 42.59206 | -70.43633 | 9572 ft | 256 kts | 268° |
| 2026-05-04 20:45 | 42.59094 | -70.46020 | 9302 ft | 254 kts | 268° |
| 2026-05-04 20:45 | 42.58982 | -70.48377 | 9031 ft | 247 kts | 268° |
| 2026-05-04 20:45 | 42.58872 | -70.50688 | 8776 ft | 241 kts | 268° |
| 2026-05-04 20:45 | 42.58764 | -70.52944 | 8515 ft | 236 kts | 268° |
| 2026-05-04 20:46 | 42.58659 | -70.55148 | 8248 ft | 231 kts | 267° |
| 2026-05-04 20:46 | 42.58430 | -70.57289 | 8026 ft | 228 kts | 258° |
| 2026-05-04 20:46 | 42.57981 | -70.59345 | 7776 ft | 230 kts | 255° |
| 2026-05-04 20:46 | 42.57516 | -70.61422 | 7519 ft | 228 kts | 255° |
| 2026-05-04 20:47 | 42.57066 | -70.63485 | 7279 ft | 228 kts | 255° |
| 2026-05-04 20:47 | 42.56625 | -70.65521 | 7142 ft | 220 kts | 255° |
| 2026-05-04 20:47 | 42.56197 | -70.67488 | 7023 ft | 217 kts | 255° |
| 2026-05-04 20:47 | 42.56020 | -70.69481 | 6916 ft | 214 kts | 277° |
| 2026-05-04 20:48 | 42.56560 | -70.71348 | 6786 ft | 221 kts | 302° |
| 2026-05-04 20:48 | 42.57536 | -70.72987 | 6604 ft | 224 kts | 304° |
| 2026-05-04 20:48 | 42.58505 | -70.74631 | 6394 ft | 223 kts | 303° |
| 2026-05-04 20:48 | 42.59476 | -70.76266 | 6180 ft | 223 kts | 309° |
| 2026-05-04 20:49 | 42.60820 | -70.77353 | 6017 ft | 237 kts | 339° |
| 2026-05-04 20:49 | 42.62418 | -70.77942 | 5998 ft | 244 kts | 326° |
| 2026-05-04 20:49 | 42.63693 | -70.79473 | 5998 ft | 248 kts | 297° |
| 2026-05-04 20:49 | 42.64227 | -70.81665 | 5998 ft | 245 kts | 270° |
| 2026-05-04 20:50 | 42.63879 | -70.83901 | 5964 ft | 246 kts | 244° |
| 2026-05-04 20:50 | 42.62747 | -70.85698 | 5708 ft | 251 kts | 221° |
| 2026-05-04 20:50 | 42.61309 | -70.87037 | 5355 ft | 250 kts | 218° |
| 2026-05-04 20:50 | 42.59896 | -70.88411 | 4964 ft | 248 kts | 221° |
| 2026-05-04 20:51 | 42.58463 | -70.89712 | 4420 ft | 255 kts | 210° |
| 2026-05-04 20:51 | 42.56812 | -70.90659 | 3952 ft | 251 kts | 204° |
| 2026-05-04 20:51 | 42.55198 | -70.91424 | 3657 ft | 238 kts | 204° |
| 2026-05-04 20:51 | 42.53637 | -70.92192 | 3355 ft | 224 kts | 204° |
| 2026-05-04 20:52 | 42.52228 | -70.92880 | 3072 ft | 216 kts | 204° |
| 2026-05-04 20:52 | 42.50816 | -70.93564 | 2767 ft | 208 kts | 204° |
| 2026-05-04 20:52 | 42.49454 | -70.94228 | 2508 ft | 202 kts | 205° |
| 2026-05-04 20:52 | 42.48223 | -70.94821 | 2296 ft | 176 kts | 205° |
| 2026-05-04 20:53 | 42.47082 | -70.95380 | 2042 ft | 169 kts | 205° |
| 2026-05-04 20:53 | 42.45996 | -70.95905 | 1822 ft | 164 kts | 205° |
| 2026-05-04 20:53 | 42.44974 | -70.96399 | 1620 ft | 149 kts | 208° |
| 2026-05-04 20:53 | 42.44042 | -70.96851 | 1408 ft | 135 kts | 206° |
| 2026-05-04 20:54 | 42.43180 | -70.97270 | 1239 ft | 128 kts | 206° |
| 2026-05-04 20:54 | 42.42340 | -70.97679 | 1057 ft | 128 kts | 206° |
| 2026-05-04 20:54 | 42.41524 | -70.98073 | 903 ft | 122 kts | 205° |
| 2026-05-04 20:54 | 42.40708 | -70.98459 | 739 ft | 124 kts | 202° |
| 2026-05-04 20:55 | 42.39877 | -70.98847 | 589 ft | 124 kts | 205° |
| 2026-05-04 20:55 | 42.39059 | -70.99256 | 414 ft | 121 kts | 202° |
| 2026-05-04 20:55 | 42.38220 | -70.99664 | 249 ft | 130 kts | 203° |
| 2026-05-04 20:55 | 42.37378 | -71.00079 | 53 ft | 125 kts | 203° |
| 2026-05-04 20:56 | 42.36666 | -71.00429 | 31 ft | 86 kts | 200° |
| 2026-05-04 20:56 | 42.36220 | -71.00646 | 30 ft | 43 kts | 199° |
| 2026-05-04 20:56 | 42.36020 | -71.00760 | 32 ft | 25 kts | 219° |
| 2026-05-04 20:56 | 42.35921 | -71.00909 | 30 ft | 19 kts | 230° |
| 2026-05-04 20:57 | 42.35848 | -71.01036 | 30 ft | 16 kts | 245° |
| 2026-05-04 20:57 | 42.35836 | -71.01174 | 30 ft | 15 kts | 278° |
| 2026-05-04 20:57 | 42.35846 | -71.01264 | 30 ft | 3 kts | 278° |
| 2026-05-04 20:57 | 42.35851 | -71.01312 | 30 ft | 8 kts | 278° |
| 2026-05-04 20:58 | 42.35861 | -71.01403 | 30 ft | 11 kts | 278° |
| 2026-05-04 20:58 | 42.35883 | -71.01508 | 30 ft | 10 kts | 312° |
| 2026-05-04 20:58 | 42.35935 | -71.01526 | 30 ft | 8 kts | 17° |
| 2026-05-04 20:58 | 42.35997 | -71.01497 | 30 ft | 11 kts | 19° |
| 2026-05-04 20:59 | 42.36080 | -71.01458 | 30 ft | 15 kts | 19° |
| 2026-05-04 20:59 | 42.36189 | -71.01406 | 30 ft | 19 kts | 19° |
| 2026-05-04 20:59 | 42.36323 | -71.01341 | 30 ft | 22 kts | 20° |
| 2026-05-04 20:59 | 42.36479 | -71.01265 | 31 ft | 26 kts | 20° |
| 2026-05-04 21:00 | 42.36625 | -71.01194 | 31 ft | 20 kts | 19° |
| 2026-05-04 21:00 | 42.36764 | -71.01146 | 30 ft | 20 kts | 351° |
| 2026-05-04 21:00 | 42.36871 | -71.01252 | 30 ft | 19 kts | 316° |
| 2026-05-04 21:00 | 42.36965 | -71.01381 | 30 ft | 19 kts | 314° |
| 2026-05-04 21:01 | 42.37059 | -71.01509 | 30 ft | 19 kts | 317° |
| 2026-05-04 21:01 | 42.37150 | -71.01628 | 30 ft | 18 kts | 313° |
| 2026-05-04 21:01 | 42.37238 | -71.01749 | 30 ft | 18 kts | 315° |
| 2026-05-04 21:01 | 42.37294 | -71.01839 | 30 ft | 9 kts | 275° |
| 2026-05-04 21:02 | 42.37267 | -71.01908 | 30 ft | 8 kts | 224° |
| 2026-05-04 21:02 | 42.37236 | -71.01964 | 30 ft | 6 kts | 261° |
| 2026-05-04 21:02 | 42.37236 | -71.02030 | 30 ft | 8 kts | 271° |
| 2026-05-04 21:02 | 42.37223 | -71.02086 | 30 ft | 4 kts | 211° |
| 2026-05-04 21:03 | 42.37196 | -71.02091 | 30 ft | 6 kts | 178° |
| 2026-05-04 21:03 | 42.37161 | -71.02089 | 30 ft | 2 kts | 176° |
| 2026-05-04 21:03 | 42.37149 | -71.02088 | 30 ft | 1 kts | 176° |
| 2026-05-04 21:03 | 42.37147 | -71.02088 | 30 ft | 0 kts | 176° |